sensor_id;sensor_type;location;lat;lon;timestamp;P1;durP1;ratioP1;P2;durP2;ratioP2
47860;SDS011;33620;52.340;5.984;2022-09-09T00:12:36;4.05;;;2.10;;
47860;SDS011;33620;52.340;5.984;2022-09-09T00:15:14;8.27;;;2.20;;
47860;SDS011;33620;52.340;5.984;2022-09-09T00:17:50;7.72;;;2.65;;
47860;SDS011;33620;52.340;5.984;2022-09-09T00:25:29;3.75;;;2.38;;
47860;SDS011;33620;52.340;5.984;2022-09-09T00:28:13;4.68;;;2.30;;
47860;SDS011;33620;52.340;5.984;2022-09-09T00:30:47;5.00;;;2.67;;
47860;SDS011;33620;52.340;5.984;2022-09-09T00:33:13;4.60;;;2.10;;
47860;SDS011;33620;52.340;5.984;2022-09-09T00:35:51;6.15;;;2.20;;
47860;SDS011;33620;52.340;5.984;2022-09-09T00:38:23;6.38;;;2.10;;
47860;SDS011;33620;52.340;5.984;2022-09-09T00:41:21;8.13;;;2.22;;
47860;SDS011;33620;52.340;5.984;2022-09-09T00:44:15;4.88;;;1.88;;
47860;SDS011;33620;52.340;5.984;2022-09-09T00:46:58;7.28;;;2.20;;
47860;SDS011;33620;52.340;5.984;2022-09-09T00:49:49;3.90;;;1.80;;
47860;SDS011;33620;52.340;5.984;2022-09-09T00:52:24;4.25;;;2.10;;
47860;SDS011;33620;52.340;5.984;2022-09-09T00:57:51;3.15;;;2.00;;
47860;SDS011;33620;52.340;5.984;2022-09-09T01:03:17;4.90;;;2.38;;
47860;SDS011;33620;52.340;5.984;2022-09-09T01:06:13;3.63;;;2.13;;
47860;SDS011;33620;52.340;5.984;2022-09-09T01:13:46;4.85;;;2.10;;
47860;SDS011;33620;52.340;5.984;2022-09-09T01:16:14;5.10;;;2.97;;
47860;SDS011;33620;52.340;5.984;2022-09-09T01:18:43;9.55;;;2.88;;
47860;SDS011;33620;52.340;5.984;2022-09-09T01:26:46;4.20;;;2.70;;
47860;SDS011;33620;52.340;5.984;2022-09-09T01:29:13;4.55;;;2.80;;
47860;SDS011;33620;52.340;5.984;2022-09-09T01:31:42;4.15;;;2.35;;
47860;SDS011;33620;52.340;5.984;2022-09-09T01:34:19;7.03;;;3.35;;
47860;SDS011;33620;52.340;5.984;2022-09-09T01:36:48;6.40;;;2.85;;
47860;SDS011;33620;52.340;5.984;2022-09-09T01:39:20;6.10;;;2.90;;
47860;SDS011;33620;52.340;5.984;2022-09-09T01:41:46;7.57;;;2.60;;
47860;SDS011;33620;52.340;5.984;2022-09-09T01:44:11;4.43;;;2.45;;
47860;SDS011;33620;52.340;5.984;2022-09-09T01:46:37;5.32;;;2.70;;
47860;SDS011;33620;52.340;5.984;2022-09-09T01:49:02;6.50;;;2.90;;
47860;SDS011;33620;52.340;5.984;2022-09-09T01:51:29;7.93;;;3.00;;
47860;SDS011;33620;52.340;5.984;2022-09-09T01:53:55;6.95;;;2.90;;
47860;SDS011;33620;52.340;5.984;2022-09-09T01:56:23;6.38;;;2.83;;
47860;SDS011;33620;52.340;5.984;2022-09-09T01:59:13;3.67;;;2.38;;
47860;SDS011;33620;52.340;5.984;2022-09-09T02:02:15;6.47;;;2.50;;
47860;SDS011;33620;52.340;5.984;2022-09-09T02:04:45;3.72;;;2.17;;
47860;SDS011;33620;52.340;5.984;2022-09-09T02:10:11;4.85;;;2.40;;
47860;SDS011;33620;52.340;5.984;2022-09-09T02:12:42;6.85;;;3.45;;
47860;SDS011;33620;52.340;5.984;2022-09-09T02:15:17;6.75;;;3.33;;
47860;SDS011;33620;52.340;5.984;2022-09-09T02:17:55;5.57;;;3.08;;
47860;SDS011;33620;52.340;5.984;2022-09-09T02:20:23;8.88;;;3.90;;
47860;SDS011;33620;52.340;5.984;2022-09-09T02:22:51;8.45;;;3.28;;
47860;SDS011;33620;52.340;5.984;2022-09-09T02:25:19;6.50;;;3.13;;
47860;SDS011;33620;52.340;5.984;2022-09-09T02:27:47;9.60;;;3.50;;
47860;SDS011;33620;52.340;5.984;2022-09-09T02:30:16;8.30;;;3.95;;
47860;SDS011;33620;52.340;5.984;2022-09-09T02:32:42;9.45;;;3.80;;
47860;SDS011;33620;52.340;5.984;2022-09-09T02:35:12;8.27;;;3.67;;
47860;SDS011;33620;52.340;5.984;2022-09-09T02:37:41;8.93;;;4.05;;
47860;SDS011;33620;52.340;5.984;2022-09-09T02:40:11;6.53;;;3.40;;
47860;SDS011;33620;52.340;5.984;2022-09-09T02:42:41;7.88;;;3.70;;
47860;SDS011;33620;52.340;5.984;2022-09-09T02:45:08;11.13;;;4.65;;
47860;SDS011;33620;52.340;5.984;2022-09-09T02:47:55;8.90;;;4.07;;
47860;SDS011;33620;52.340;5.984;2022-09-09T02:50:57;8.88;;;3.53;;
47860;SDS011;33620;52.340;5.984;2022-09-09T02:53:47;6.38;;;3.92;;
47860;SDS011;33620;52.340;5.984;2022-09-09T02:56:25;6.30;;;3.72;;
47860;SDS011;33620;52.340;5.984;2022-09-09T02:58:55;9.15;;;4.30;;
47860;SDS011;33620;52.340;5.984;2022-09-09T03:01:21;11.18;;;4.63;;
47860;SDS011;33620;52.340;5.984;2022-09-09T03:03:46;8.98;;;3.95;;
47860;SDS011;33620;52.340;5.984;2022-09-09T03:06:12;8.90;;;4.07;;
47860;SDS011;33620;52.340;5.984;2022-09-09T03:08:37;9.02;;;4.03;;
47860;SDS011;33620;52.340;5.984;2022-09-09T03:11:03;10.63;;;4.45;;
47860;SDS011;33620;52.340;5.984;2022-09-09T03:13:29;7.25;;;4.13;;
47860;SDS011;33620;52.340;5.984;2022-09-09T03:15:54;6.13;;;3.55;;
47860;SDS011;33620;52.340;5.984;2022-09-09T03:18:20;8.40;;;4.00;;
47860;SDS011;33620;52.340;5.984;2022-09-09T03:20:45;9.80;;;4.10;;
47860;SDS011;33620;52.340;5.984;2022-09-09T03:23:13;7.88;;;3.60;;
47860;SDS011;33620;52.340;5.984;2022-09-09T03:25:39;6.40;;;3.42;;
47860;SDS011;33620;52.340;5.984;2022-09-09T03:28:04;6.90;;;3.42;;
47860;SDS011;33620;52.340;5.984;2022-09-09T03:30:30;9.48;;;3.78;;
47860;SDS011;33620;52.340;5.984;2022-09-09T03:32:55;7.95;;;3.63;;
47860;SDS011;33620;52.340;5.984;2022-09-09T03:35:21;6.32;;;3.00;;
47860;SDS011;33620;52.340;5.984;2022-09-09T03:37:47;8.88;;;3.45;;
47860;SDS011;33620;52.340;5.984;2022-09-09T03:40:12;6.75;;;3.33;;
47860;SDS011;33620;52.340;5.984;2022-09-09T03:42:38;8.23;;;4.22;;
47860;SDS011;33620;52.340;5.984;2022-09-09T03:45:05;7.63;;;3.90;;
47860;SDS011;33620;52.340;5.984;2022-09-09T03:47:32;7.30;;;3.67;;
47860;SDS011;33620;52.340;5.984;2022-09-09T03:49:58;6.30;;;3.60;;
47860;SDS011;33620;52.340;5.984;2022-09-09T03:52:23;4.55;;;3.33;;
47860;SDS011;33620;52.340;5.984;2022-09-09T03:54:51;6.63;;;3.63;;
47860;SDS011;33620;52.340;5.984;2022-09-09T03:57:17;7.93;;;4.10;;
47860;SDS011;33620;52.340;5.984;2022-09-09T03:59:43;7.15;;;4.10;;
47860;SDS011;33620;52.340;5.984;2022-09-09T04:02:08;8.77;;;4.30;;
47860;SDS011;33620;52.340;5.984;2022-09-09T04:04:34;10.15;;;4.60;;
47860;SDS011;33620;52.340;5.984;2022-09-09T04:07:00;9.98;;;4.75;;
47860;SDS011;33620;52.340;5.984;2022-09-09T04:09:25;12.82;;;5.15;;
47860;SDS011;33620;52.340;5.984;2022-09-09T04:11:51;9.80;;;4.93;;
47860;SDS011;33620;52.340;5.984;2022-09-09T04:14:18;8.57;;;4.50;;
47860;SDS011;33620;52.340;5.984;2022-09-09T04:16:43;12.93;;;5.47;;
47860;SDS011;33620;52.340;5.984;2022-09-09T04:19:09;10.40;;;5.30;;
47860;SDS011;33620;52.340;5.984;2022-09-09T04:21:37;11.02;;;5.72;;
47860;SDS011;33620;52.340;5.984;2022-09-09T04:24:04;12.27;;;5.70;;
47860;SDS011;33620;52.340;5.984;2022-09-09T04:26:30;8.82;;;4.85;;
47860;SDS011;33620;52.340;5.984;2022-09-09T04:28:56;11.30;;;4.90;;
47860;SDS011;33620;52.340;5.984;2022-09-09T04:31:21;7.63;;;4.47;;
47860;SDS011;33620;52.340;5.984;2022-09-09T04:33:48;11.23;;;5.07;;
47860;SDS011;33620;52.340;5.984;2022-09-09T04:36:14;8.40;;;4.22;;
47860;SDS011;33620;52.340;5.984;2022-09-09T04:38:40;8.63;;;4.63;;
47860;SDS011;33620;52.340;5.984;2022-09-09T04:41:06;11.23;;;5.25;;
47860;SDS011;33620;52.340;5.984;2022-09-09T04:43:32;8.38;;;4.82;;
47860;SDS011;33620;52.340;5.984;2022-09-09T04:45:57;12.23;;;6.03;;
47860;SDS011;33620;52.340;5.984;2022-09-09T04:48:24;9.57;;;4.82;;
47860;SDS011;33620;52.340;5.984;2022-09-09T04:51:08;12.27;;;6.28;;
47860;SDS011;33620;52.340;5.984;2022-09-09T04:53:36;9.82;;;5.55;;
47860;SDS011;33620;52.340;5.984;2022-09-09T04:56:03;10.05;;;5.47;;
47860;SDS011;33620;52.340;5.984;2022-09-09T04:58:36;10.47;;;5.37;;
47860;SDS011;33620;52.340;5.984;2022-09-09T05:01:03;10.18;;;5.05;;
47860;SDS011;33620;52.340;5.984;2022-09-09T05:03:29;8.13;;;4.95;;
47860;SDS011;33620;52.340;5.984;2022-09-09T05:06:01;10.32;;;5.10;;
47860;SDS011;33620;52.340;5.984;2022-09-09T05:08:29;12.48;;;5.80;;
47860;SDS011;33620;52.340;5.984;2022-09-09T05:10:54;10.43;;;5.45;;
47860;SDS011;33620;52.340;5.984;2022-09-09T05:13:20;10.68;;;5.20;;
47860;SDS011;33620;52.340;5.984;2022-09-09T05:15:52;10.60;;;5.13;;
47860;SDS011;33620;52.340;5.984;2022-09-09T05:18:18;10.65;;;5.60;;
47860;SDS011;33620;52.340;5.984;2022-09-09T05:20:44;11.32;;;5.53;;
47860;SDS011;33620;52.340;5.984;2022-09-09T05:23:09;14.45;;;5.32;;
47860;SDS011;33620;52.340;5.984;2022-09-09T05:25:38;10.25;;;5.35;;
47860;SDS011;33620;52.340;5.984;2022-09-09T05:28:05;9.88;;;5.38;;
47860;SDS011;33620;52.340;5.984;2022-09-09T05:30:32;12.50;;;5.25;;
47860;SDS011;33620;52.340;5.984;2022-09-09T05:32:58;13.23;;;6.38;;
47860;SDS011;33620;52.340;5.984;2022-09-09T05:35:24;16.88;;;6.50;;
47860;SDS011;33620;52.340;5.984;2022-09-09T05:37:49;16.08;;;6.90;;
47860;SDS011;33620;52.340;5.984;2022-09-09T05:40:14;13.75;;;6.70;;
47860;SDS011;33620;52.340;5.984;2022-09-09T05:42:40;10.15;;;5.45;;
47860;SDS011;33620;52.340;5.984;2022-09-09T05:45:06;12.23;;;5.75;;
47860;SDS011;33620;52.340;5.984;2022-09-09T05:47:33;10.77;;;5.90;;
47860;SDS011;33620;52.340;5.984;2022-09-09T05:49:58;14.75;;;6.40;;
47860;SDS011;33620;52.340;5.984;2022-09-09T05:52:24;16.05;;;7.32;;
47860;SDS011;33620;52.340;5.984;2022-09-09T05:54:51;14.27;;;6.68;;
47860;SDS011;33620;52.340;5.984;2022-09-09T05:57:17;16.13;;;7.13;;
47860;SDS011;33620;52.340;5.984;2022-09-09T05:59:44;11.80;;;6.22;;
47860;SDS011;33620;52.340;5.984;2022-09-09T06:02:09;13.65;;;6.78;;
47860;SDS011;33620;52.340;5.984;2022-09-09T06:04:35;12.13;;;5.72;;
47860;SDS011;33620;52.340;5.984;2022-09-09T06:07:00;13.82;;;6.82;;
47860;SDS011;33620;52.340;5.984;2022-09-09T06:09:26;20.58;;;8.02;;
47860;SDS011;33620;52.340;5.984;2022-09-09T06:11:51;13.05;;;6.47;;
47860;SDS011;33620;52.340;5.984;2022-09-09T06:14:17;16.45;;;6.95;;
47860;SDS011;33620;52.340;5.984;2022-09-09T06:16:43;13.18;;;5.95;;
47860;SDS011;33620;52.340;5.984;2022-09-09T06:19:08;16.38;;;6.28;;
47860;SDS011;33620;52.340;5.984;2022-09-09T06:21:35;15.52;;;6.75;;
47860;SDS011;33620;52.340;5.984;2022-09-09T06:24:02;14.25;;;6.25;;
47860;SDS011;33620;52.340;5.984;2022-09-09T06:26:32;12.40;;;6.78;;
47860;SDS011;33620;52.340;5.984;2022-09-09T06:28:59;16.00;;;7.22;;
47860;SDS011;33620;52.340;5.984;2022-09-09T06:31:26;14.90;;;6.65;;
47860;SDS011;33620;52.340;5.984;2022-09-09T06:33:55;14.02;;;6.25;;
47860;SDS011;33620;52.340;5.984;2022-09-09T06:36:31;14.20;;;6.30;;
47860;SDS011;33620;52.340;5.984;2022-09-09T06:38:57;17.70;;;7.18;;
47860;SDS011;33620;52.340;5.984;2022-09-09T06:41:24;12.95;;;6.38;;
47860;SDS011;33620;52.340;5.984;2022-09-09T06:43:52;19.35;;;6.97;;
47860;SDS011;33620;52.340;5.984;2022-09-09T06:46:18;18.50;;;6.80;;
47860;SDS011;33620;52.340;5.984;2022-09-09T06:48:44;13.23;;;6.07;;
47860;SDS011;33620;52.340;5.984;2022-09-09T06:51:11;17.90;;;6.55;;
47860;SDS011;33620;52.340;5.984;2022-09-09T06:53:38;12.85;;;6.45;;
47860;SDS011;33620;52.340;5.984;2022-09-09T06:58:37;17.90;;;7.63;;
47860;SDS011;33620;52.340;5.984;2022-09-09T07:03:47;15.20;;;5.50;;
47860;SDS011;33620;52.340;5.984;2022-09-09T07:06:16;16.55;;;6.93;;
47860;SDS011;33620;52.340;5.984;2022-09-09T07:09:08;18.02;;;6.50;;
47860;SDS011;33620;52.340;5.984;2022-09-09T07:11:38;13.48;;;6.20;;
47860;SDS011;33620;52.340;5.984;2022-09-09T07:14:04;12.73;;;5.47;;
47860;SDS011;33620;52.340;5.984;2022-09-09T07:16:30;20.60;;;7.40;;
47860;SDS011;33620;52.340;5.984;2022-09-09T07:18:56;16.17;;;6.88;;
47860;SDS011;33620;52.340;5.984;2022-09-09T07:21:22;16.67;;;7.30;;
47860;SDS011;33620;52.340;5.984;2022-09-09T07:23:49;13.38;;;6.32;;
47860;SDS011;33620;52.340;5.984;2022-09-09T07:26:18;16.08;;;6.07;;
47860;SDS011;33620;52.340;5.984;2022-09-09T07:28:45;13.88;;;5.57;;
47860;SDS011;33620;52.340;5.984;2022-09-09T07:31:15;16.08;;;5.38;;
47860;SDS011;33620;52.340;5.984;2022-09-09T07:33:42;14.18;;;5.20;;
47860;SDS011;33620;52.340;5.984;2022-09-09T07:36:10;14.63;;;5.38;;
47860;SDS011;33620;52.340;5.984;2022-09-09T07:38:50;14.50;;;5.78;;
47860;SDS011;33620;52.340;5.984;2022-09-09T07:41:22;17.92;;;6.10;;
47860;SDS011;33620;52.340;5.984;2022-09-09T07:44:15;16.38;;;5.57;;
47860;SDS011;33620;52.340;5.984;2022-09-09T07:46:43;15.77;;;5.55;;
47860;SDS011;33620;52.340;5.984;2022-09-09T07:49:10;13.23;;;4.55;;
47860;SDS011;33620;52.340;5.984;2022-09-09T07:51:37;11.18;;;4.80;;
47860;SDS011;33620;52.340;5.984;2022-09-09T07:54:05;11.40;;;4.72;;
47860;SDS011;33620;52.340;5.984;2022-09-09T07:56:34;12.60;;;4.38;;
47860;SDS011;33620;52.340;5.984;2022-09-09T07:59:00;13.85;;;4.57;;
47860;SDS011;33620;52.340;5.984;2022-09-09T08:06:30;16.42;;;5.32;;
47860;SDS011;33620;52.340;5.984;2022-09-09T08:08:58;12.20;;;4.22;;
47860;SDS011;33620;52.340;5.984;2022-09-09T08:11:24;12.60;;;4.30;;
47860;SDS011;33620;52.340;5.984;2022-09-09T08:13:51;11.23;;;3.80;;
47860;SDS011;33620;52.340;5.984;2022-09-09T08:16:24;10.88;;;4.10;;
47860;SDS011;33620;52.340;5.984;2022-09-09T08:21:19;12.32;;;3.50;;
47860;SDS011;33620;52.340;5.984;2022-09-09T08:23:46;16.55;;;3.35;;
47860;SDS011;33620;52.340;5.984;2022-09-09T08:26:14;16.25;;;3.97;;
47860;SDS011;33620;52.340;5.984;2022-09-09T08:28:41;11.40;;;3.83;;
47860;SDS011;33620;52.340;5.984;2022-09-09T08:31:14;15.40;;;3.47;;
47860;SDS011;33620;52.340;5.984;2022-09-09T08:33:41;10.98;;;3.30;;
47860;SDS011;33620;52.340;5.984;2022-09-09T08:36:10;14.15;;;3.22;;
47860;SDS011;33620;52.340;5.984;2022-09-09T08:38:38;13.13;;;3.80;;
47860;SDS011;33620;52.340;5.984;2022-09-09T08:41:12;11.75;;;3.38;;
47860;SDS011;33620;52.340;5.984;2022-09-09T08:44:10;12.80;;;3.30;;
47860;SDS011;33620;52.340;5.984;2022-09-09T08:49:38;10.45;;;3.17;;
47860;SDS011;33620;52.340;5.984;2022-09-09T08:52:15;13.20;;;3.78;;
47860;SDS011;33620;52.340;5.984;2022-09-09T08:54:44;14.80;;;3.70;;
47860;SDS011;33620;52.340;5.984;2022-09-09T08:57:14;12.30;;;3.38;;
47860;SDS011;33620;52.340;5.984;2022-09-09T08:59:46;11.38;;;3.50;;
47860;SDS011;33620;52.340;5.984;2022-09-09T09:10:12;12.35;;;3.05;;
47860;SDS011;33620;52.340;5.984;2022-09-09T09:12:50;13.38;;;3.50;;
47860;SDS011;33620;52.340;5.984;2022-09-09T09:15:20;10.63;;;3.17;;
47860;SDS011;33620;52.340;5.984;2022-09-09T09:17:49;15.03;;;3.47;;
47860;SDS011;33620;52.340;5.984;2022-09-09T09:20:16;10.07;;;2.88;;
47860;SDS011;33620;52.340;5.984;2022-09-09T09:22:49;12.25;;;3.40;;
47860;SDS011;33620;52.340;5.984;2022-09-09T09:25:23;10.70;;;3.65;;
47860;SDS011;33620;52.340;5.984;2022-09-09T09:28:07;13.75;;;3.72;;
47860;SDS011;33620;52.340;5.984;2022-09-09T09:36:13;13.15;;;3.72;;
47860;SDS011;33620;52.340;5.984;2022-09-09T09:38:55;16.15;;;3.55;;
47860;SDS011;33620;52.340;5.984;2022-09-09T09:41:38;16.67;;;3.97;;
47860;SDS011;33620;52.340;5.984;2022-09-09T09:44:18;14.32;;;3.35;;
47860;SDS011;33620;52.340;5.984;2022-09-09T09:46:49;8.55;;;3.13;;
47860;SDS011;33620;52.340;5.984;2022-09-09T09:49:15;13.90;;;3.67;;
47860;SDS011;33620;52.340;5.984;2022-09-09T09:51:40;7.22;;;3.03;;
47860;SDS011;33620;52.340;5.984;2022-09-09T09:56:38;12.30;;;3.50;;
47860;SDS011;33620;52.340;5.984;2022-09-09T09:59:04;13.88;;;3.17;;
47860;SDS011;33620;52.340;5.984;2022-09-09T10:01:30;13.73;;;3.30;;
47860;SDS011;33620;52.340;5.984;2022-09-09T10:04:01;14.90;;;4.30;;
47860;SDS011;33620;52.340;5.984;2022-09-09T10:06:48;14.63;;;3.88;;
47860;SDS011;33620;52.340;5.984;2022-09-09T10:09:24;11.18;;;3.28;;
47860;SDS011;33620;52.340;5.984;2022-09-09T10:26:34;8.75;;;2.63;;
47860;SDS011;33620;52.340;5.984;2022-09-09T10:37:20;7.90;;;2.60;;
47860;SDS011;33620;52.340;5.984;2022-09-09T10:43:00;12.00;;;2.70;;
47860;SDS011;33620;52.340;5.984;2022-09-09T10:48:30;13.88;;;3.55;;
47860;SDS011;33620;52.340;5.984;2022-09-09T10:56:21;14.50;;;2.92;;
47860;SDS011;33620;52.340;5.984;2022-09-09T10:58:50;7.95;;;2.70;;
47860;SDS011;33620;52.340;5.984;2022-09-09T11:01:33;10.50;;;2.80;;
47860;SDS011;33620;52.340;5.984;2022-09-09T11:04:27;10.65;;;2.58;;
47860;SDS011;33620;52.340;5.984;2022-09-09T11:06:55;6.53;;;2.60;;
47860;SDS011;33620;52.340;5.984;2022-09-09T11:09:28;10.10;;;2.35;;
47860;SDS011;33620;52.340;5.984;2022-09-09T11:11:57;9.50;;;2.90;;
47860;SDS011;33620;52.340;5.984;2022-09-09T11:17:10;8.85;;;2.78;;
47860;SDS011;33620;52.340;5.984;2022-09-09T11:19:40;12.20;;;3.03;;
47860;SDS011;33620;52.340;5.984;2022-09-09T11:22:14;9.95;;;2.72;;
47860;SDS011;33620;52.340;5.984;2022-09-09T11:24:41;10.18;;;2.70;;
47860;SDS011;33620;52.340;5.984;2022-09-09T11:32:27;15.10;;;2.78;;
47860;SDS011;33620;52.340;5.984;2022-09-09T11:37:42;7.03;;;2.20;;
47860;SDS011;33620;52.340;5.984;2022-09-09T11:40:45;10.45;;;2.80;;
47860;SDS011;33620;52.340;5.984;2022-09-09T11:43:17;9.75;;;2.65;;
47860;SDS011;33620;52.340;5.984;2022-09-09T11:45:51;9.65;;;2.50;;
47860;SDS011;33620;52.340;5.984;2022-09-09T11:48:33;16.05;;;3.72;;
47860;SDS011;33620;52.340;5.984;2022-09-09T11:53:34;13.10;;;3.08;;
47860;SDS011;33620;52.340;5.984;2022-09-09T11:56:05;7.82;;;2.60;;
47860;SDS011;33620;52.340;5.984;2022-09-09T11:58:36;11.60;;;3.00;;
47860;SDS011;33620;52.340;5.984;2022-09-09T12:06:41;16.50;;;3.65;;
47860;SDS011;33620;52.340;5.984;2022-09-09T12:09:29;12.07;;;3.20;;
47860;SDS011;33620;52.340;5.984;2022-09-09T12:14:38;17.58;;;4.53;;
47860;SDS011;33620;52.340;5.984;2022-09-09T12:19:40;9.40;;;3.30;;
47860;SDS011;33620;52.340;5.984;2022-09-09T12:24:50;14.27;;;4.05;;
47860;SDS011;33620;52.340;5.984;2022-09-09T12:30:28;11.85;;;4.10;;
47860;SDS011;33620;52.340;5.984;2022-09-09T12:33:11;9.45;;;3.78;;
47860;SDS011;33620;52.340;5.984;2022-09-09T12:35:41;13.10;;;4.70;;
47860;SDS011;33620;52.340;5.984;2022-09-09T12:38:11;11.32;;;3.78;;
47860;SDS011;33620;52.340;5.984;2022-09-09T12:40:52;10.60;;;3.60;;
47860;SDS011;33620;52.340;5.984;2022-09-09T12:43:20;11.25;;;3.42;;
47860;SDS011;33620;52.340;5.984;2022-09-09T12:45:47;10.40;;;3.80;;
47860;SDS011;33620;52.340;5.984;2022-09-09T12:48:15;13.85;;;3.08;;
47860;SDS011;33620;52.340;5.984;2022-09-09T12:50:48;7.50;;;2.55;;
47860;SDS011;33620;52.340;5.984;2022-09-09T12:53:22;8.60;;;2.45;;
47860;SDS011;33620;52.340;5.984;2022-09-09T12:56:04;9.38;;;2.90;;
47860;SDS011;33620;52.340;5.984;2022-09-09T12:58:35;6.30;;;2.75;;
47860;SDS011;33620;52.340;5.984;2022-09-09T13:01:02;6.43;;;2.35;;
47860;SDS011;33620;52.340;5.984;2022-09-09T13:03:30;10.02;;;2.20;;
47860;SDS011;33620;52.340;5.984;2022-09-09T13:06:12;6.47;;;2.63;;
47860;SDS011;33620;52.340;5.984;2022-09-09T13:08:43;6.28;;;2.58;;
47860;SDS011;33620;52.340;5.984;2022-09-09T13:11:16;4.03;;;2.13;;
47860;SDS011;33620;52.340;5.984;2022-09-09T13:14:00;9.48;;;2.47;;
47860;SDS011;33620;52.340;5.984;2022-09-09T13:16:34;7.78;;;2.22;;
47860;SDS011;33620;52.340;5.984;2022-09-09T13:19:01;9.27;;;2.05;;
47860;SDS011;33620;52.340;5.984;2022-09-09T13:21:32;8.73;;;2.05;;
47860;SDS011;33620;52.340;5.984;2022-09-09T13:24:03;8.30;;;2.30;;
47860;SDS011;33620;52.340;5.984;2022-09-09T13:26:32;8.82;;;2.70;;
47860;SDS011;33620;52.340;5.984;2022-09-09T13:29:14;7.45;;;2.42;;
47860;SDS011;33620;52.340;5.984;2022-09-09T13:31:45;9.88;;;2.65;;
47860;SDS011;33620;52.340;5.984;2022-09-09T13:34:25;8.73;;;2.30;;
47860;SDS011;33620;52.340;5.984;2022-09-09T13:36:54;6.07;;;2.17;;
47860;SDS011;33620;52.340;5.984;2022-09-09T13:39:28;7.68;;;2.20;;
47860;SDS011;33620;52.340;5.984;2022-09-09T13:41:53;6.10;;;2.17;;
47860;SDS011;33620;52.340;5.984;2022-09-09T13:44:30;6.43;;;2.30;;
47860;SDS011;33620;52.340;5.984;2022-09-09T13:49:41;7.05;;;1.92;;
47860;SDS011;33620;52.340;5.984;2022-09-09T13:52:10;5.15;;;2.05;;
47860;SDS011;33620;52.340;5.984;2022-09-09T13:54:38;8.15;;;2.38;;
47860;SDS011;33620;52.340;5.984;2022-09-09T13:57:04;9.88;;;2.58;;
47860;SDS011;33620;52.340;5.984;2022-09-09T13:59:30;7.65;;;1.98;;
47860;SDS011;33620;52.340;5.984;2022-09-09T14:01:56;4.57;;;1.85;;
47860;SDS011;33620;52.340;5.984;2022-09-09T14:04:22;8.73;;;2.25;;
47860;SDS011;33620;52.340;5.984;2022-09-09T14:06:48;7.90;;;1.92;;
47860;SDS011;33620;52.340;5.984;2022-09-09T14:09:15;6.47;;;2.10;;
47860;SDS011;33620;52.340;5.984;2022-09-09T14:11:43;3.05;;;2.05;;
47860;SDS011;33620;52.340;5.984;2022-09-09T14:14:10;9.43;;;2.30;;
47860;SDS011;33620;52.340;5.984;2022-09-09T14:16:35;5.13;;;2.20;;
47860;SDS011;33620;52.340;5.984;2022-09-09T14:19:02;7.43;;;2.22;;
47860;SDS011;33620;52.340;5.984;2022-09-09T14:21:28;5.55;;;2.28;;
47860;SDS011;33620;52.340;5.984;2022-09-09T14:23:54;11.60;;;3.22;;
47860;SDS011;33620;52.340;5.984;2022-09-09T14:26:20;5.90;;;2.15;;
47860;SDS011;33620;52.340;5.984;2022-09-09T14:28:46;8.45;;;1.83;;
47860;SDS011;33620;52.340;5.984;2022-09-09T14:31:13;6.78;;;2.30;;
47860;SDS011;33620;52.340;5.984;2022-09-09T14:33:38;8.98;;;2.97;;
47860;SDS011;33620;52.340;5.984;2022-09-09T14:36:04;9.45;;;2.60;;
47860;SDS011;33620;52.340;5.984;2022-09-09T14:38:34;6.95;;;2.63;;
47860;SDS011;33620;52.340;5.984;2022-09-09T14:41:04;8.18;;;2.58;;
47860;SDS011;33620;52.340;5.984;2022-09-09T14:43:41;9.27;;;2.75;;
47860;SDS011;33620;52.340;5.984;2022-09-09T14:46:07;6.68;;;2.60;;
47860;SDS011;33620;52.340;5.984;2022-09-09T14:48:34;6.78;;;2.28;;
47860;SDS011;33620;52.340;5.984;2022-09-09T14:53:32;8.30;;;2.35;;
47860;SDS011;33620;52.340;5.984;2022-09-09T14:56:05;7.47;;;2.88;;
47860;SDS011;33620;52.340;5.984;2022-09-09T14:58:41;10.38;;;2.38;;
47860;SDS011;33620;52.340;5.984;2022-09-09T15:01:13;7.15;;;2.42;;
47860;SDS011;33620;52.340;5.984;2022-09-09T15:03:40;8.55;;;2.63;;
47860;SDS011;33620;52.340;5.984;2022-09-09T15:06:11;9.07;;;2.17;;
47860;SDS011;33620;52.340;5.984;2022-09-09T15:08:38;4.15;;;1.70;;
47860;SDS011;33620;52.340;5.984;2022-09-09T15:11:06;7.28;;;2.80;;
47860;SDS011;33620;52.340;5.984;2022-09-09T15:13:35;6.43;;;2.55;;
47860;SDS011;33620;52.340;5.984;2022-09-09T15:18:30;4.97;;;1.85;;
47860;SDS011;33620;52.340;5.984;2022-09-09T15:20:57;7.70;;;2.60;;
47860;SDS011;33620;52.340;5.984;2022-09-09T15:23:23;4.95;;;2.10;;
47860;SDS011;33620;52.340;5.984;2022-09-09T15:25:54;7.10;;;2.50;;
47860;SDS011;33620;52.340;5.984;2022-09-09T15:28:21;6.63;;;2.30;;
47860;SDS011;33620;52.340;5.984;2022-09-09T15:30:48;6.15;;;2.42;;
47860;SDS011;33620;52.340;5.984;2022-09-09T15:33:14;6.18;;;2.33;;
47860;SDS011;33620;52.340;5.984;2022-09-09T15:35:40;9.80;;;3.08;;
47860;SDS011;33620;52.340;5.984;2022-09-09T15:38:05;9.23;;;2.50;;
47860;SDS011;33620;52.340;5.984;2022-09-09T15:40:31;5.20;;;2.28;;
47860;SDS011;33620;52.340;5.984;2022-09-09T15:42:59;6.22;;;2.22;;
47860;SDS011;33620;52.340;5.984;2022-09-09T15:45:25;9.75;;;2.55;;
47860;SDS011;33620;52.340;5.984;2022-09-09T15:47:51;5.40;;;2.40;;
47860;SDS011;33620;52.340;5.984;2022-09-09T15:50:17;4.82;;;2.63;;
47860;SDS011;33620;52.340;5.984;2022-09-09T15:52:42;5.18;;;2.28;;
47860;SDS011;33620;52.340;5.984;2022-09-09T15:55:08;6.88;;;2.35;;
47860;SDS011;33620;52.340;5.984;2022-09-09T15:57:33;8.60;;;2.15;;
47860;SDS011;33620;52.340;5.984;2022-09-09T15:59:59;10.10;;;2.40;;
47860;SDS011;33620;52.340;5.984;2022-09-09T16:02:25;5.07;;;1.95;;
47860;SDS011;33620;52.340;5.984;2022-09-09T16:04:51;9.60;;;2.50;;
47860;SDS011;33620;52.340;5.984;2022-09-09T16:07:16;6.53;;;2.25;;
47860;SDS011;33620;52.340;5.984;2022-09-09T16:09:42;9.60;;;2.97;;
47860;SDS011;33620;52.340;5.984;2022-09-09T16:12:08;6.53;;;1.92;;
47860;SDS011;33620;52.340;5.984;2022-09-09T16:14:38;5.20;;;2.13;;
47860;SDS011;33620;52.340;5.984;2022-09-09T16:17:04;6.35;;;2.50;;
47860;SDS011;33620;52.340;5.984;2022-09-09T16:19:30;7.15;;;2.47;;
47860;SDS011;33620;52.340;5.984;2022-09-09T16:21:59;5.82;;;2.60;;
47860;SDS011;33620;52.340;5.984;2022-09-09T16:24:25;7.18;;;2.90;;
47860;SDS011;33620;52.340;5.984;2022-09-09T16:26:52;9.70;;;3.15;;
47860;SDS011;33620;52.340;5.984;2022-09-09T16:29:19;6.78;;;2.78;;
47860;SDS011;33620;52.340;5.984;2022-09-09T16:31:46;10.18;;;3.03;;
47860;SDS011;33620;52.340;5.984;2022-09-09T16:34:13;10.32;;;2.75;;
47860;SDS011;33620;52.340;5.984;2022-09-09T16:36:40;7.88;;;3.03;;
47860;SDS011;33620;52.340;5.984;2022-09-09T16:39:13;9.40;;;3.33;;
47860;SDS011;33620;52.340;5.984;2022-09-09T16:41:41;5.95;;;2.63;;
47860;SDS011;33620;52.340;5.984;2022-09-09T16:44:09;9.57;;;3.00;;
47860;SDS011;33620;52.340;5.984;2022-09-09T16:46:37;5.90;;;2.80;;
47860;SDS011;33620;52.340;5.984;2022-09-09T16:49:04;7.70;;;2.60;;
47860;SDS011;33620;52.340;5.984;2022-09-09T16:51:35;6.45;;;2.85;;
47860;SDS011;33620;52.340;5.984;2022-09-09T16:54:06;8.95;;;3.25;;
47860;SDS011;33620;52.340;5.984;2022-09-09T16:56:33;8.63;;;3.00;;
47860;SDS011;33620;52.340;5.984;2022-09-09T16:59:02;8.05;;;2.42;;
47860;SDS011;33620;52.340;5.984;2022-09-09T17:01:31;5.95;;;2.05;;
47860;SDS011;33620;52.340;5.984;2022-09-09T17:04:00;8.80;;;2.78;;
47860;SDS011;33620;52.340;5.984;2022-09-09T17:06:31;5.00;;;2.78;;
47860;SDS011;33620;52.340;5.984;2022-09-09T17:09:00;10.02;;;3.00;;
47860;SDS011;33620;52.340;5.984;2022-09-09T17:11:27;6.43;;;2.42;;
47860;SDS011;33620;52.340;5.984;2022-09-09T17:13:54;5.35;;;2.28;;
47860;SDS011;33620;52.340;5.984;2022-09-09T17:16:20;7.88;;;2.35;;
47860;SDS011;33620;52.340;5.984;2022-09-09T17:18:48;8.70;;;2.38;;